Terminal Aerodrome Forecast
Issued by NWS Louisville, KY

Home | Current Version | Previous Version | Text Only | Print | Product List | Glossary On
Versions: 1 2 3 4 5 6 7 8 9 10 11 12 13 14 15 16 17 18 19 20
413
FTUS43 KLMK 171412 AAB
TAFBWG
TAF AMD
KBWG 171412Z 1714/1812 10006KT 1 1/2SM BR OVC002
     FM171530 14008KT 2SM BR BKN003
     FM171700 17012KT P6SM SCT150
     FM180200 18012KT P6SM BKN080 WS020/20045KT
     FM180700 19015G22KT P6SM VCSH SCT025 BKN040 WS020/20050KT=

USA.gov is the U.S. government's official web portal to all federal, state and local government web resources and services.